Time;durP1;ratioP1;P1;durP2;ratioP2;P2;SDS_P1;SDS_P2;PMS_P1;PMS_P2;Temp;Humidity;BMP_temperature;BMP_pressure;BME280_temperature;BME280_humidity;BME280_pressure;Samples;Min_cycle;Max_cycle;Signal;HPM_P1;HPM_P2
2023/12/21 00:02:05;;;;;;;;;;;17.60;55.10;;;;;;7396405;19;2022;-73
2023/12/21 00:04:32;;;;;;;;;;;17.60;55.20;;;;;;7396193;19;1821;-73
2023/12/21 00:06:57;;;;;;;;;;;17.50;55.20;;;;;;7396264;19;3373;-73
2023/12/21 00:09:23;;;;;;;;;;;17.50;55.30;;;;;;7394572;19;1609;-73
2023/12/21 00:11:48;;;;;;;;;;;17.50;55.40;;;;;;7392232;19;2780;-73
2023/12/21 00:14:14;;;;;;;;;;;17.50;55.50;;;;;;7394969;19;3018;-73
2023/12/21 00:16:39;;;;;;;;;;;17.50;55.90;;;;;;7393012;19;2550;-73
2023/12/21 00:19:05;;;;;;;;;;;17.40;55.70;;;;;;7392905;19;2844;-73
2023/12/21 00:21:30;;;;;;;;;;;17.40;55.70;;;;;;7396375;19;2767;-73
2023/12/21 00:23:55;;;;;;;;;;;17.40;55.60;;;;;;7397379;19;2173;-73
2023/12/21 00:26:21;;;;;;;;;;;17.40;56.40;;;;;;7392230;19;2584;-72
2023/12/21 00:28:47;;;;;;;;;;;17.40;55.80;;;;;;7393284;19;3278;-73
2023/12/21 00:31:12;;;;;;;;;;;17.40;55.90;;;;;;7393829;19;1826;-73
2023/12/21 00:33:37;;;;;;;;;;;17.40;55.80;;;;;;7393950;19;2644;-73
2023/12/21 00:36:03;;;;;;;;;;;17.30;55.80;;;;;;7394476;19;3043;-73
2023/12/21 00:38:29;;;;;;;;;;;17.30;55.80;;;;;;7394840;19;1734;-73
2023/12/21 00:40:54;;;;;;;;;;;17.30;55.80;;;;;;7390177;19;4297;-74
2023/12/21 00:43:20;;;;;;;;;;;17.30;55.80;;;;;;7394107;19;1765;-73
2023/12/21 00:45:45;;;;;;;;;;;17.30;55.90;;;;;;7394740;19;1706;-73
2023/12/21 00:48:11;;;;;;;;;;;17.30;55.90;;;;;;7393874;19;2656;-74
2023/12/21 00:50:37;;;;;;;;;;;17.30;55.90;;;;;;7395328;19;2012;-73
2023/12/21 00:53:02;;;;;;;;;;;17.30;56.00;;;;;;7395771;19;1881;-73
2023/12/21 00:55:28;;;;;;;;;;;17.30;55.90;;;;;;7391878;19;2724;-73
2023/12/21 00:57:53;;;;;;;;;;;17.30;56.00;;;;;;7391430;19;2838;-73
2023/12/21 01:00:19;;;;;;;;;;;17.30;56.00;;;;;;7393615;19;1909;-74
2023/12/21 01:02:45;;;;;;;;;;;17.20;56.20;;;;;;7390891;19;4364;-73
2023/12/21 01:05:10;;;;;;;;;;;17.20;56.20;;;;;;7396152;19;2282;-74
2023/12/21 01:07:35;;;;;;;;;;;17.20;56.30;;;;;;7390133;19;2329;-73
2023/12/21 01:10:01;;;;;;;;;;;17.10;56.10;;;;;;7389148;19;3576;-73
2023/12/21 01:12:31;;;;;;;;;;;17.10;56.20;;;;;;7396416;19;2402;-74
2023/12/21 01:14:58;;;;;;;;;;;17.10;56.20;;;;;;7399303;19;2003;-73
2023/12/21 01:17:23;;;;;;;;;;;17.10;56.20;;;;;;7396021;19;2479;-74
2023/12/21 01:19:49;;;;;;;;;;;17.10;56.30;;;;;;7398806;19;1983;-74
2023/12/21 01:22:14;;;;;;;;;;;17.10;56.20;;;;;;7399234;19;3011;-74
2023/12/21 01:24:40;;;;;;;;;;;17.10;56.30;;;;;;7397733;19;3338;-74
2023/12/21 01:27:05;;;;;;;;;;;17.10;56.30;;;;;;7397847;19;1826;-73
2023/12/21 01:29:30;;;;;;;;;;;17.10;56.30;;;;;;7396965;19;2179;-73
2023/12/21 01:31:57;;;;;;;;;;;17.10;56.40;;;;;;7395033;19;3315;-73
2023/12/21 01:34:22;;;;;;;;;;;17.00;56.30;;;;;;7400629;19;2006;-73
2023/12/21 01:36:48;;;;;;;;;;;17.00;56.30;;;;;;7397378;19;2303;-73
2023/12/21 01:39:14;;;;;;;;;;;17.00;56.30;;;;;;7398548;19;2891;-73
2023/12/21 01:41:40;;;;;;;;;;;17.00;56.40;;;;;;7397746;19;2022;-73
2023/12/21 01:44:05;;;;;;;;;;;17.00;56.40;;;;;;7400536;19;1803;-73
2023/12/21 01:46:31;;;;;;;;;;;17.00;56.40;;;;;;7399229;19;4401;-73
2023/12/21 01:48:56;;;;;;;;;;;17.00;56.50;;;;;;7401934;19;1908;-74
2023/12/21 01:51:22;;;;;;;;;;;17.00;56.50;;;;;;7397442;19;2122;-73
2023/12/21 01:53:48;;;;;;;;;;;17.00;56.40;;;;;;7397461;19;4448;-74
2023/12/21 01:56:13;;;;;;;;;;;17.00;56.60;;;;;;7397703;19;1971;-73
2023/12/21 01:58:39;;;;;;;;;;;17.00;56.40;;;;;;7400520;19;1628;-73
2023/12/21 02:01:04;;;;;;;;;;;17.00;56.60;;;;;;7396494;19;3492;-73
2023/12/21 02:03:30;;;;;;;;;;;16.90;56.50;;;;;;7398381;19;1766;-73
2023/12/21 02:05:55;;;;;;;;;;;16.90;56.60;;;;;;7399223;19;2199;-73
2023/12/21 02:08:20;;;;;;;;;;;16.90;56.70;;;;;;7394210;19;2793;-73
2023/12/21 02:10:46;;;;;;;;;;;16.90;56.70;;;;;;7398950;19;1845;-72
2023/12/21 02:13:12;;;;;;;;;;;16.90;56.60;;;;;;7397554;19;2141;-73
2023/12/21 02:15:37;;;;;;;;;;;17.00;56.60;;;;;;7394225;19;2785;-73
2023/12/21 02:18:03;;;;;;;;;;;17.10;56.40;;;;;;7396475;19;2206;-74
2023/12/21 02:20:28;;;;;;;;;;;17.20;56.10;;;;;;7400158;19;2286;-73
2023/12/21 02:22:54;;;;;;;;;;;17.30;55.80;;;;;;7393504;19;3107;-73
2023/12/21 02:25:19;;;;;;;;;;;17.40;55.80;;;;;;7396575;19;2321;-73
2023/12/21 02:27:48;;;;;;;;;;;17.60;55.50;;;;;;7394526;19;1940;-73
2023/12/21 02:30:13;;;;;;;;;;;17.80;55.00;;;;;;7396375;19;3761;-73
2023/12/21 02:32:39;;;;;;;;;;;18.10;54.40;;;;;;7399260;19;2173;-73
2023/12/21 02:35:04;;;;;;;;;;;18.40;53.70;;;;;;7397320;19;1895;-73
2023/12/21 02:37:30;;;;;;;;;;;18.70;53.30;;;;;;7394920;19;2913;-73
2023/12/21 02:39:56;;;;;;;;;;;18.80;52.80;;;;;;7398500;19;1601;-74
2023/12/21 02:42:21;;;;;;;;;;;18.90;52.60;;;;;;7397933;19;1562;-73
2023/12/21 02:44:47;;;;;;;;;;;19.00;52.50;;;;;;7397137;19;3599;-73
2023/12/21 02:47:12;;;;;;;;;;;19.00;52.40;;;;;;7399137;19;1422;-73
2023/12/21 02:49:38;;;;;;;;;;;19.00;52.40;;;;;;7396825;19;772;-74
2023/12/21 02:52:03;;;;;;;;;;;19.00;52.30;;;;;;7397053;19;4214;-74
2023/12/21 02:54:29;;;;;;;;;;;19.00;52.40;;;;;;7400019;19;1802;-73
2023/12/21 02:56:55;;;;;;;;;;;19.00;52.50;;;;;;7395975;19;1853;-73
2023/12/21 02:59:21;;;;;;;;;;;19.00;52.60;;;;;;7394835;19;3280;-73
2023/12/21 03:01:46;;;;;;;;;;;19.00;52.70;;;;;;7398156;19;1587;-73
2023/12/21 03:04:12;;;;;;;;;;;18.90;52.80;;;;;;7398837;19;922;-73
2023/12/21 03:06:37;;;;;;;;;;;18.90;52.80;;;;;;7394984;19;4585;-73
2023/12/21 03:09:03;;;;;;;;;;;18.80;52.90;;;;;;7393588;19;1006;-74
2023/12/21 03:11:28;;;;;;;;;;;18.80;52.80;;;;;;7397647;19;1191;-73
2023/12/21 03:13:54;;;;;;;;;;;18.80;53.10;;;;;;7395869;19;2823;-73
2023/12/21 03:16:19;;;;;;;;;;;18.80;53.20;;;;;;7393379;19;2587;-74
2023/12/21 03:18:46;;;;;;;;;;;18.70;53.40;;;;;;7396007;19;1555;-74
2023/12/21 03:21:11;;;;;;;;;;;18.70;53.80;;;;;;7395434;19;3887;-74
2023/12/21 03:23:39;;;;;;;;;;;18.60;53.80;;;;;;7396452;19;1496;-74
2023/12/21 03:26:04;;;;;;;;;;;18.50;53.90;;;;;;7396756;19;1528;-73
2023/12/21 03:28:30;;;;;;;;;;;18.40;54.20;;;;;;7397191;19;2678;-73
2023/12/21 03:30:55;;;;;;;;;;;18.40;54.40;;;;;;7396525;19;1769;-73
2023/12/21 03:33:21;;;;;;;;;;;18.30;54.60;;;;;;7395724;19;1509;-73
2023/12/21 03:35:46;;;;;;;;;;;18.30;54.70;;;;;;7393744;19;3393;-74
2023/12/21 03:38:12;;;;;;;;;;;18.20;54.80;;;;;;7394709;19;1993;-74
2023/12/21 03:40:37;;;;;;;;;;;18.20;55.00;;;;;;7394544;19;2050;-73
2023/12/21 03:43:03;;;;;;;;;;;18.20;55.00;;;;;;7396669;19;2980;-74
2023/12/21 03:45:29;;;;;;;;;;;18.10;55.00;;;;;;7396768;19;1436;-74
2023/12/21 03:47:54;;;;;;;;;;;18.10;55.10;;;;;;7395924;19;1990;-74
2023/12/21 03:50:20;;;;;;;;;;;18.10;55.20;;;;;;7389831;19;4452;-73
2023/12/21 03:52:45;;;;;;;;;;;18.20;55.30;;;;;;7395234;19;3182;-73
2023/12/21 03:55:11;;;;;;;;;;;18.10;55.20;;;;;;7397321;19;1606;-73
2023/12/21 03:57:36;;;;;;;;;;;18.10;55.30;;;;;;7393277;19;2739;-73
2023/12/21 04:00:02;;;;;;;;;;;18.10;55.40;;;;;;7393600;19;1201;-73
2023/12/21 04:02:27;;;;;;;;;;;18.10;55.40;;;;;;7396643;19;1442;-74
2023/12/21 04:04:53;;;;;;;;;;;18.10;55.30;;;;;;7395294;19;2701;-73
2023/12/21 04:07:18;;;;;;;;;;;18.20;55.20;;;;;;7395150;19;1437;-73
2023/12/21 04:09:44;;;;;;;;;;;18.20;55.30;;;;;;7393379;19;1442;-74
2023/12/21 04:12:09;;;;;;;;;;;18.10;55.30;;;;;;7393145;19;3340;-73
2023/12/21 04:14:35;;;;;;;;;;;18.20;55.40;;;;;;7393692;19;1520;-73
2023/12/21 04:17:00;;;;;;;;;;;18.10;55.40;;;;;;7395014;19;1858;-73
2023/12/21 04:19:26;;;;;;;;;;;18.20;55.40;;;;;;7396257;19;2917;-73
2023/12/21 04:21:51;;;;;;;;;;;18.20;55.30;;;;;;7395103;19;1500;-73
2023/12/21 04:24:16;;;;;;;;;;;18.30;55.30;;;;;;7394107;19;3017;-73
2023/12/21 04:26:42;;;;;;;;;;;18.30;55.20;;;;;;7395477;19;3988;-73
2023/12/21 04:29:07;;;;;;;;;;;18.30;55.10;;;;;;7397040;19;1408;-73
2023/12/21 04:31:33;;;;;;;;;;;18.30;55.30;;;;;;7393746;19;4457;-73
2023/12/21 04:33:58;;;;;;;;;;;18.30;55.20;;;;;;7396106;19;2988;-73
2023/12/21 04:36:24;;;;;;;;;;;18.30;55.20;;;;;;7394371;19;1858;-73
2023/12/21 04:38:49;;;;;;;;;;;18.30;55.20;;;;;;7395097;19;2540;-73
2023/12/21 04:41:15;;;;;;;;;;;18.30;55.20;;;;;;7393632;19;3006;-73
2023/12/21 04:43:40;;;;;;;;;;;18.40;55.30;;;;;;7395958;19;1594;-73
2023/12/21 04:46:05;;;;;;;;;;;18.40;55.30;;;;;;7395170;19;3332;-73
2023/12/21 04:48:31;;;;;;;;;;;18.30;55.30;;;;;;7403230;19;3132;-73
2023/12/21 04:50:56;;;;;;;;;;;18.30;55.30;;;;;;7400578;19;1480;-73
2023/12/21 04:53:22;;;;;;;;;;;18.30;55.30;;;;;;7401575;19;5215;-73
2023/12/21 04:55:48;;;;;;;;;;;18.20;55.40;;;;;;7401857;19;1641;-73
2023/12/21 04:58:14;;;;;;;;;;;18.20;55.60;;;;;;7397742;19;1861;-72
2023/12/21 05:00:40;;;;;;;;;;;18.10;55.70;;;;;;7399096;19;2623;-73
2023/12/21 05:03:05;;;;;;;;;;;18.10;55.70;;;;;;7398997;19;3212;-73
2023/12/21 05:05:31;;;;;;;;;;;18.20;55.80;;;;;;7401267;19;1737;-73
2023/12/21 05:07:56;;;;;;;;;;;18.20;55.80;;;;;;7398896;19;3258;-73
2023/12/21 05:10:22;;;;;;;;;;;18.20;55.90;;;;;;7400770;19;2782;-73
2023/12/21 05:12:47;;;;;;;;;;;18.10;55.70;;;;;;7398882;19;1545;-72
2023/12/21 05:15:13;;;;;;;;;;;18.10;55.80;;;;;;7398980;19;4016;-73
2023/12/21 05:17:38;;;;;;;;;;;18.20;55.80;;;;;;7399903;19;1858;-73
2023/12/21 05:20:04;;;;;;;;;;;18.20;55.70;;;;;;7401972;19;1827;-73
2023/12/21 05:22:30;;;;;;;;;;;18.20;55.80;;;;;;7400157;19;2856;-73
2023/12/21 05:24:56;;;;;;;;;;;18.10;55.90;;;;;;7398074;19;833;-73
2023/12/21 05:27:21;;;;;;;;;;;18.10;56.60;;;;;;7401466;19;1639;-73
2023/12/21 05:29:47;;;;;;;;;;;18.10;56.10;;;;;;7399960;19;2645;-73
2023/12/21 05:32:12;;;;;;;;;;;18.10;56.20;;;;;;7401643;19;3171;-73
2023/12/21 05:34:38;;;;;;;;;;;18.00;56.70;;;;;;7401744;19;1401;-73
2023/12/21 05:37:03;;;;;;;;;;;18.00;56.20;;;;;;7398280;19;3789;-73
2023/12/21 05:39:29;;;;;;;;;;;18.00;56.30;;;;;;7400734;19;1488;-73
2023/12/21 05:41:54;;;;;;;;;;;18.00;56.30;;;;;;7401025;19;1636;-73
2023/12/21 05:44:19;;;;;;;;;;;18.00;56.40;;;;;;7400863;19;2628;-73
2023/12/21 05:46:45;;;;;;;;;;;18.00;56.30;;;;;;7399260;19;1535;-73
2023/12/21 05:49:10;;;;;;;;;;;18.10;56.30;;;;;;7401166;19;1544;-73
2023/12/21 05:51:36;;;;;;;;;;;18.10;56.10;;;;;;7400046;19;2798;-73
2023/12/21 05:54:02;;;;;;;;;;;18.10;56.10;;;;;;7401439;19;3144;-73
2023/12/21 05:56:28;;;;;;;;;;;18.10;56.10;;;;;;7398848;19;1865;-73
2023/12/21 05:58:54;;;;;;;;;;;18.10;56.20;;;;;;7396900;19;3613;-73
2023/12/21 06:01:19;;;;;;;;;;;18.10;56.10;;;;;;7401196;19;1384;-73
2023/12/21 06:03:44;;;;;;;;;;;18.10;56.20;;;;;;7399825;19;982;-74
2023/12/21 06:06:11;;;;;;;;;;;18.10;56.10;;;;;;7397068;19;2681;-72
2023/12/21 06:08:36;;;;;;;;;;;18.20;56.00;;;;;;7400064;19;1713;-74
2023/12/21 06:11:02;;;;;;;;;;;18.20;55.90;;;;;;7400217;19;1434;-73
2023/12/21 06:13:28;;;;;;;;;;;18.30;55.80;;;;;;7397069;19;2715;-74
2023/12/21 06:15:54;;;;;;;;;;;18.30;55.80;;;;;;7397010;19;2093;-74
2023/12/21 06:18:20;;;;;;;;;;;18.30;55.60;;;;;;7400061;19;1652;-74
2023/12/21 06:20:45;;;;;;;;;;;18.40;55.70;;;;;;7399690;19;4212;-73
2023/12/21 06:23:11;;;;;;;;;;;18.30;55.70;;;;;;7400014;19;1886;-73
2023/12/21 06:25:36;;;;;;;;;;;18.30;55.60;;;;;;7395334;19;1806;-73
2023/12/21 06:28:02;;;;;;;;;;;18.30;55.70;;;;;;7400551;19;4177;-73
2023/12/21 06:30:28;;;;;;;;;;;18.30;55.70;;;;;;7399364;19;4462;-73
2023/12/21 06:32:53;;;;;;;;;;;18.20;55.80;;;;;;7402741;19;1458;-73
2023/12/21 06:35:19;;;;;;;;;;;18.20;55.90;;;;;;7401499;19;2635;-73
2023/12/21 06:37:45;;;;;;;;;;;18.20;55.90;;;;;;7394953;19;1928;-73
2023/12/21 06:40:10;;;;;;;;;;;18.30;55.90;;;;;;7398809;19;1842;-73
2023/12/21 06:42:36;;;;;;;;;;;18.20;56.10;;;;;;7396092;19;2735;-73
2023/12/21 06:45:01;;;;;;;;;;;18.20;56.20;;;;;;7401451;19;1098;-73
2023/12/21 06:47:26;;;;;;;;;;;18.20;56.20;;;;;;7395151;19;1076;-73
2023/12/21 06:49:52;;;;;;;;;;;18.20;56.10;;;;;;7395526;19;2842;-73
2023/12/21 06:52:17;;;;;;;;;;;18.20;56.00;;;;;;7398916;19;1482;-73
2023/12/21 06:54:43;;;;;;;;;;;18.20;55.90;;;;;;7398279;19;1528;-73
2023/12/21 06:57:10;;;;;;;;;;;18.20;56.10;;;;;;7393444;19;4133;-74
2023/12/21 06:59:35;;;;;;;;;;;18.20;56.00;;;;;;7398346;19;1475;-73
2023/12/21 07:02:01;;;;;;;;;;;18.30;56.00;;;;;;7393398;19;2812;-73
2023/12/21 07:04:26;;;;;;;;;;;18.30;55.80;;;;;;7395556;19;2852;-74
2023/12/21 07:06:52;;;;;;;;;;;18.40;55.80;;;;;;7394312;19;1248;-74
2023/12/21 07:09:17;;;;;;;;;;;18.40;55.80;;;;;;7396956;19;1075;-73
2023/12/21 07:11:43;;;;;;;;;;;18.40;55.80;;;;;;7395268;19;3854;-73
2023/12/21 07:14:08;;;;;;;;;;;18.40;55.80;;;;;;7396379;19;1441;-73
2023/12/21 07:16:34;;;;;;;;;;;18.40;55.90;;;;;;7395082;19;1865;-74
2023/12/21 07:19:01;;;;;;;;;;;18.40;55.70;;;;;;7394976;19;3335;-74
2023/12/21 07:21:26;;;;;;;;;;;18.50;55.70;;;;;;7395561;19;2644;-73
2023/12/21 07:23:52;;;;;;;;;;;18.50;55.40;;;;;;7396702;19;2334;-74
2023/12/21 07:26:17;;;;;;;;;;;18.50;55.40;;;;;;7395262;19;3163;-73
2023/12/21 07:28:43;;;;;;;;;;;18.60;55.40;;;;;;7395139;19;3395;-73
2023/12/21 07:31:10;;;;;;;;;;;18.60;55.40;;;;;;7397431;19;2979;-73
2023/12/21 07:33:37;;;;;;;;;;;18.60;55.40;;;;;;7396370;19;3381;-74
2023/12/21 07:36:03;;;;;;;;;;;18.50;55.40;;;;;;7396157;19;2709;-73
2023/12/21 07:38:28;;;;;;;;;;;18.60;55.50;;;;;;7396555;19;3325;-73
2023/12/21 07:40:56;;;;;;;;;;;18.60;55.40;;;;;;7392578;19;3957;-73
2023/12/21 07:43:22;;;;;;;;;;;18.60;55.40;;;;;;7398171;19;1597;-73
2023/12/21 07:45:48;;;;;;;;;;;18.60;55.30;;;;;;7394706;19;1429;-73
2023/12/21 07:48:13;;;;;;;;;;;18.70;55.30;;;;;;7393155;19;3657;-73
2023/12/21 07:50:39;;;;;;;;;;;18.70;55.20;;;;;;7397687;19;1618;-73
2023/12/21 07:53:04;;;;;;;;;;;18.70;55.10;;;;;;7398580;19;1293;-73
2023/12/21 07:55:31;;;;;;;;;;;18.70;55.00;;;;;;7393800;19;2795;-73
2023/12/21 07:57:56;;;;;;;;;;;18.70;55.00;;;;;;7391785;19;1847;-73
2023/12/21 08:00:21;;;;;;;;;;;18.80;55.00;;;;;;7396839;19;1590;-73
2023/12/21 08:02:48;;;;;;;;;;;18.70;54.90;;;;;;7393791;19;3455;-73
2023/12/21 08:05:13;;;;;;;;;;;18.70;54.90;;;;;;7394034;19;819;-72
2023/12/21 08:07:39;;;;;;;;;;;18.70;54.90;;;;;;7394932;19;1594;-73
2023/12/21 08:10:07;;;;;;;;;;;18.70;55.00;;;;;;7391075;19;2728;-73
2023/12/21 08:12:33;;;;;;;;;;;18.70;55.00;;;;;;7394696;19;3829;-73
2023/12/21 08:14:58;;;;;;;;;;;18.70;55.00;;;;;;7396284;19;1625;-73
2023/12/21 08:17:24;;;;;;;;;;;18.80;55.10;;;;;;7394201;19;2687;-72
2023/12/21 08:19:49;;;;;;;;;;;18.70;55.00;;;;;;7393647;19;2826;-72
2023/12/21 08:22:15;;;;;;;;;;;18.70;55.00;;;;;;7398152;19;1597;-72
2023/12/21 08:24:40;;;;;;;;;;;18.80;55.20;;;;;;7399220;19;4096;-72
2023/12/21 08:27:06;;;;;;;;;;;18.80;55.10;;;;;;7399386;19;2273;-72
2023/12/21 08:29:31;;;;;;;;;;;18.80;55.20;;;;;;7399352;19;2826;-73
2023/12/21 08:31:57;;;;;;;;;;;18.90;55.50;;;;;;7399158;19;2824;-73
2023/12/21 08:34:22;;;;;;;;;;;19.40;54.80;;;;;;7401183;19;2305;-72
2023/12/21 08:36:48;;;;;;;;;;;19.80;54.00;;;;;;7399741;19;1868;-73
2023/12/21 08:39:14;;;;;;;;;;;20.20;53.10;;;;;;7398925;19;2677;-72
2023/12/21 08:41:39;;;;;;;;;;;20.60;53.30;;;;;;7399508;19;1836;-72
2023/12/21 08:44:05;;;;;;;;;;;20.90;52.00;;;;;;7392623;19;2704;-72
2023/12/21 08:46:30;;;;;;;;;;;21.00;51.70;;;;;;7393147;19;2946;-72
2023/12/21 08:48:55;;;;;;;;;;;21.20;51.30;;;;;;7402127;19;1547;-72
2023/12/21 08:51:22;;;;;;;;;;;21.30;51.10;;;;;;7402271;19;1501;-72
2023/12/21 08:53:47;;;;;;;;;;;21.30;51.20;;;;;;7400743;19;2703;-73
2023/12/21 08:56:15;;;;;;;;;;;21.30;51.20;;;;;;7396898;19;2650;-73
2023/12/21 08:58:40;;;;;;;;;;;21.10;51.30;;;;;;7399260;19;2765;-74
2023/12/21 09:01:06;;;;;;;;;;;21.00;51.90;;;;;;7396489;19;3065;-73
2023/12/21 09:03:31;;;;;;;;;;;20.90;51.90;;;;;;7398824;19;2595;-73
2023/12/21 09:05:57;;;;;;;;;;;20.90;51.90;;;;;;7398717;19;2878;-73
2023/12/21 09:08:22;;;;;;;;;;;21.10;51.90;;;;;;7397100;19;2506;-73
2023/12/21 09:10:48;;;;;;;;;;;21.00;51.70;;;;;;7398516;19;1476;-73
2023/12/21 09:13:13;;;;;;;;;;;21.20;51.40;;;;;;7397622;19;5283;-73
2023/12/21 09:15:39;;;;;;;;;;;21.30;51.10;;;;;;7401171;19;3021;-73
2023/12/21 09:18:08;;;;;;;;;;;21.50;51.00;;;;;;7397759;19;3522;-73
2023/12/21 09:20:33;;;;;;;;;;;21.40;50.90;;;;;;7397326;19;4519;-73
2023/12/21 09:22:59;;;;;;;;;;;21.50;50.80;;;;;;7400312;19;2883;-73
2023/12/21 09:25:24;;;;;;;;;;;21.50;50.70;;;;;;7396475;19;3174;-74
2023/12/21 09:27:50;;;;;;;;;;;21.60;50.60;;;;;;7398847;19;2750;-73
2023/12/21 09:30:17;;;;;;;;;;;21.60;50.60;;;;;;7399257;19;3249;-73
2023/12/21 09:32:45;;;;;;;;;;;21.60;50.50;;;;;;7398719;19;1480;-73
2023/12/21 09:35:10;;;;;;;;;;;21.60;50.60;;;;;;7398717;19;2406;-73
2023/12/21 09:37:36;;;;;;;;;;;21.50;50.70;;;;;;7398421;19;3164;-73
2023/12/21 09:40:02;;;;;;;;;;;21.60;50.60;;;;;;7399399;19;2413;-73
2023/12/21 09:42:28;;;;;;;;;;;21.50;50.50;;;;;;7397160;19;2908;-73
2023/12/21 09:44:53;;;;;;;;;;;21.50;50.70;;;;;;7396687;19;4286;-73
2023/12/21 09:47:19;;;;;;;;;;;21.60;50.70;;;;;;7398949;19;1534;-73
2023/12/21 09:49:48;;;;;;;;;;;21.60;50.60;;;;;;7397194;19;2768;-73
2023/12/21 09:52:13;;;;;;;;;;;21.60;50.70;;;;;;7398326;19;2818;-73
2023/12/21 09:54:39;;;;;;;;;;;21.50;50.70;;;;;;7399820;19;1868;-73
2023/12/21 09:57:05;;;;;;;;;;;21.40;50.60;;;;;;7390431;19;2975;-73
2023/12/21 09:59:33;;;;;;;;;;;21.40;50.80;;;;;;7399174;19;1518;-73
2023/12/21 10:01:59;;;;;;;;;;;21.40;50.90;;;;;;7395789;19;2759;-73
2023/12/21 10:04:25;;;;;;;;;;;21.40;50.90;;;;;;7394012;19;2988;-73
2023/12/21 10:06:50;;;;;;;;;;;21.30;51.10;;;;;;7396764;19;2825;-73
2023/12/21 10:09:15;;;;;;;;;;;21.30;51.10;;;;;;7400067;19;1589;-72
2023/12/21 10:11:41;;;;;;;;;;;21.30;51.10;;;;;;7395709;19;2731;-73
2023/12/21 10:14:19;;;;;;;;;;;21.30;51.10;;;;;;7400775;19;1658;-72
2023/12/21 10:16:44;;;;;;;;;;;21.30;51.20;;;;;;7399635;19;1849;-73
2023/12/21 10:19:13;;;;;;;;;;;21.30;51.20;;;;;;7396473;19;3851;-72
2023/12/21 10:21:39;;;;;;;;;;;21.30;51.10;;;;;;7398356;19;1728;-73
2023/12/21 10:24:05;;;;;;;;;;;21.30;51.10;;;;;;7397916;19;3614;-73
2023/12/21 10:26:31;;;;;;;;;;;21.30;51.20;;;;;;7397959;19;2751;-72
2023/12/21 10:28:56;;;;;;;;;;;21.30;51.10;;;;;;7397530;19;1189;-72
2023/12/21 10:31:22;;;;;;;;;;;21.30;51.30;;;;;;7398723;19;1519;-73
2023/12/21 10:33:47;;;;;;;;;;;21.30;51.20;;;;;;7398724;19;2874;-73
2023/12/21 10:36:13;;;;;;;;;;;21.30;51.20;;;;;;7394973;19;1853;-72
2023/12/21 10:38:39;;;;;;;;;;;21.40;51.00;;;;;;7398534;19;1518;-73
2023/12/21 10:41:05;;;;;;;;;;;21.50;51.00;;;;;;7392626;19;4633;-72
2023/12/21 10:43:31;;;;;;;;;;;21.70;50.80;;;;;;7397403;19;3574;-73
2023/12/21 10:45:57;;;;;;;;;;;21.70;50.60;;;;;;7396195;19;1807;-73
2023/12/21 10:48:23;;;;;;;;;;;21.70;50.60;;;;;;7398078;19;2394;-73
2023/12/21 10:50:49;;;;;;;;;;;21.80;50.60;;;;;;7399066;19;1487;-73
2023/12/21 10:53:15;;;;;;;;;;;21.80;50.60;;;;;;7397887;19;1709;-73
2023/12/21 10:55:40;;;;;;;;;;;21.80;50.50;;;;;;7390346;19;2725;-73
2023/12/21 10:58:09;;;;;;;;;;;21.70;50.70;;;;;;7394155;19;1926;-73
2023/12/21 11:00:34;;;;;;;;;;;21.70;50.70;;;;;;7394115;19;2020;-73
2023/12/21 11:03:00;;;;;;;;;;;21.70;50.70;;;;;;7394272;19;1915;-73
2023/12/21 11:05:26;;;;;;;;;;;21.70;50.80;;;;;;7392860;19;2952;-73
2023/12/21 11:07:53;;;;;;;;;;;21.70;50.80;;;;;;7394912;19;1941;-73
2023/12/21 11:10:21;;;;;;;;;;;21.60;51.50;;;;;;7395088;19;2580;-73
2023/12/21 11:12:47;;;;;;;;;;;21.60;51.00;;;;;;7398079;19;2707;-73
2023/12/21 11:15:16;;;;;;;;;;;21.60;51.10;;;;;;7396765;19;1871;-73
2023/12/21 11:17:52;;;;;;;;;;;21.60;51.10;;;;;;7397582;19;1860;-73
2023/12/21 11:20:18;;;;;;;;;;;21.60;51.00;;;;;;7398836;19;1482;-73
2023/12/21 11:22:44;;;;;;;;;;;21.60;51.10;;;;;;7396996;19;1639;-73
2023/12/21 11:25:13;;;;;;;;;;;21.60;51.10;;;;;;7393609;19;2713;-73
2023/12/21 11:27:41;;;;;;;;;;;21.60;51.10;;;;;;7396644;19;1646;-74
2023/12/21 11:30:10;;;;;;;;;;;21.60;51.20;;;;;;7385111;19;4007;-74
2023/12/21 11:32:37;;;;;;;;;;;21.60;51.20;;;;;;7384402;19;4711;-73
2023/12/21 11:35:03;;;;;;;;;;;21.70;51.90;;;;;;7389012;19;4050;-73
2023/12/21 11:37:28;;;;;;;;;;;21.70;51.20;;;;;;7379111;19;4635;-73
2023/12/21 11:39:58;;;;;;;;;;;21.70;51.20;;;;;;7392633;19;2905;-73
2023/12/21 11:42:33;;;;;;;;;;;21.60;51.30;;;;;;7389133;19;3910;-74
2023/12/21 11:45:00;;;;;;;;;;;21.50;51.40;;;;;;7389181;19;2784;-74
2023/12/21 11:47:25;;;;;;;;;;;21.70;51.40;;;;;;7394061;19;4327;-74
2023/12/21 11:49:51;;;;;;;;;;;21.70;51.40;;;;;;7394882;19;3146;-74
2023/12/21 11:52:23;;;;;;;;;;;21.80;51.30;;;;;;7394984;19;1848;-74
2023/12/21 11:54:48;;;;;;;;;;;21.80;51.20;;;;;;7393483;19;2861;-74
2023/12/21 11:57:15;;;;;;;;;;;21.80;51.20;;;;;;7393630;19;1838;-73
2023/12/21 11:59:41;;;;;;;;;;;21.80;51.20;;;;;;7396671;19;1577;-73
2023/12/21 12:02:06;;;;;;;;;;;21.80;51.30;;;;;;7395379;19;1628;-74
2023/12/21 12:04:32;;;;;;;;;;;21.80;51.30;;;;;;7403579;19;1535;-74
2023/12/21 12:06:57;;;;;;;;;;;21.70;51.40;;;;;;7390981;19;2407;-73
2023/12/21 12:09:23;;;;;;;;;;;21.70;51.50;;;;;;7391923;19;1952;-74
2023/12/21 12:11:48;;;;;;;;;;;21.50;51.80;;;;;;7390496;19;2321;-74
2023/12/21 12:14:13;;;;;;;;;;;21.40;52.20;;;;;;7394797;19;2200;-74
2023/12/21 12:16:39;;;;;;;;;;;21.30;52.40;;;;;;7393086;19;2164;-74
2023/12/21 12:19:04;;;;;;;;;;;21.30;52.50;;;;;;7395108;19;2224;-74
2023/12/21 12:21:30;;;;;;;;;;;21.20;52.60;;;;;;7393498;19;1824;-72
2023/12/21 12:23:55;;;;;;;;;;;21.10;52.70;;;;;;7392025;19;1681;-74
2023/12/21 12:26:21;;;;;;;;;;;21.20;52.80;;;;;;7394403;19;1730;-74
2023/12/21 12:28:50;;;;;;;;;;;21.20;52.70;;;;;;7394243;19;1648;-74
2023/12/21 12:31:17;;;;;;;;;;;21.30;52.60;;;;;;7392840;19;1897;-74
2023/12/21 12:33:42;;;;;;;;;;;21.30;52.40;;;;;;7391919;19;1842;-74
2023/12/21 12:36:08;;;;;;;;;;;21.50;52.40;;;;;;7389195;19;6230;-74
2023/12/21 12:38:34;;;;;;;;;;;21.60;52.10;;;;;;7394799;19;1850;-74
2023/12/21 12:41:00;;;;;;;;;;;21.70;51.90;;;;;;7392236;19;2573;-74
2023/12/21 12:43:27;;;;;;;;;;;21.70;51.60;;;;;;7393377;19;2764;-75
2023/12/21 12:45:53;;;;;;;;;;;21.70;51.60;;;;;;7393387;19;1548;-74
2023/12/21 12:48:19;;;;;;;;;;;21.80;51.40;;;;;;7389522;19;3256;-73
2023/12/21 12:50:45;;;;;;;;;;;21.70;51.40;;;;;;7389591;19;3320;-74
2023/12/21 12:53:11;;;;;;;;;;;21.80;51.60;;;;;;7389199;19;2464;-74
2023/12/21 12:55:36;;;;;;;;;;;21.80;51.80;;;;;;7391749;19;2684;-75
2023/12/21 12:58:04;;;;;;;;;;;21.70;51.80;;;;;;7391467;19;1846;-75
2023/12/21 13:00:29;;;;;;;;;;;21.70;51.90;;;;;;7388817;19;3148;-75
2023/12/21 13:02:55;;;;;;;;;;;21.60;51.80;;;;;;7391297;19;3354;-74
2023/12/21 13:05:20;;;;;;;;;;;21.70;52.00;;;;;;7391491;19;2562;-74
2023/12/21 13:07:46;;;;;;;;;;;21.60;52.00;;;;;;7393162;19;3285;-75
2023/12/21 13:10:11;;;;;;;;;;;21.50;52.10;;;;;;7397062;19;2737;-75
2023/12/21 13:12:37;;;;;;;;;;;21.50;52.10;;;;;;7398375;19;2169;-75
2023/12/21 13:15:03;;;;;;;;;;;21.50;52.20;;;;;;7399229;19;2229;-74
2023/12/21 13:17:29;;;;;;;;;;;21.50;52.30;;;;;;7399591;19;2226;-73
2023/12/21 13:19:55;;;;;;;;;;;21.50;52.30;;;;;;7400438;19;1305;-73
2023/12/21 13:22:21;;;;;;;;;;;21.40;52.30;;;;;;7398459;19;2347;-74
2023/12/21 13:24:46;;;;;;;;;;;21.40;52.30;;;;;;7398907;19;2119;-74
2023/12/21 13:27:12;;;;;;;;;;;21.40;52.40;;;;;;7398517;19;1814;-74
2023/12/21 13:29:37;;;;;;;;;;;21.50;52.30;;;;;;7396752;19;2445;-75
2023/12/21 13:32:03;;;;;;;;;;;21.40;52.20;;;;;;7396281;19;3346;-75
2023/12/21 13:34:32;;;;;;;;;;;21.50;52.10;;;;;;7403578;19;1871;-74
2023/12/21 13:36:58;;;;;;;;;;;21.50;52.10;;;;;;7398136;19;2642;-74
2023/12/21 13:39:23;;;;;;;;;;;21.50;52.10;;;;;;7397924;19;1707;-75
2023/12/21 13:41:50;;;;;;;;;;;21.50;51.90;;;;;;7393171;19;4285;-74
2023/12/21 13:44:15;;;;;;;;;;;21.60;52.00;;;;;;7399557;19;2653;-74
2023/12/21 13:46:41;;;;;;;;;;;21.60;51.90;;;;;;7399521;19;1745;-75
2023/12/21 13:49:06;;;;;;;;;;;21.50;51.80;;;;;;7398531;19;2210;-74
2023/12/21 13:51:32;;;;;;;;;;;21.60;51.80;;;;;;7399757;19;2011;-74
2023/12/21 13:53:57;;;;;;;;;;;21.60;51.60;;;;;;7401121;19;1328;-74
2023/12/21 13:56:23;;;;;;;;;;;21.70;51.80;;;;;;7398453;19;1850;-74
2023/12/21 13:58:48;;;;;;;;;;;21.70;51.70;;;;;;7399452;19;1627;-74
2023/12/21 14:01:17;;;;;;;;;;;21.60;51.80;;;;;;7398196;19;1602;-75
2023/12/21 14:03:43;;;;;;;;;;;21.70;51.90;;;;;;7399500;19;1613;-75
2023/12/21 14:06:08;;;;;;;;;;;21.70;51.90;;;;;;7401279;19;1996;-74
2023/12/21 14:08:34;;;;;;;;;;;21.70;51.80;;;;;;7395596;19;2760;-74
2023/12/21 14:11:00;;;;;;;;;;;21.70;51.80;;;;;;7396069;19;1981;-74
2023/12/21 14:13:25;;;;;;;;;;;21.70;51.80;;;;;;7396154;19;1647;-74
2023/12/21 14:15:50;;;;;;;;;;;21.70;51.80;;;;;;7398884;19;2248;-74
2023/12/21 14:18:16;;;;;;;;;;;21.70;51.70;;;;;;7397613;19;1846;-74
2023/12/21 14:20:46;;;;;;;;;;;21.70;51.80;;;;;;7396529;19;1612;-74
2023/12/21 14:23:11;;;;;;;;;;;21.60;51.90;;;;;;7398030;19;2090;-74